Weather at Elengerah Airport

Public forecast

Using degrees Celsius for public forecast. Weather courtesy of forecast.io.

Closest aviation weather report (METAR) to Elengerah Airport

Closest report is Dubbo City Regional Airport, 37.0 nm (68.5 km) SE. Retrieved 2022/05/27 12:00 UTC (29 minutes ago):

YSDU 271200Z AUTO 12005KT 9999 // SCT049 BKN059 OVC075 13/13 Q1016

Closest aviation forecast (TAF) to Elengerah Airport

Closest forecast is Dubbo City Regional Airport, 37.0 nm (68.5 km) SE. Retrieved 2022/05/27 12:37 UTC (0 seconds ago):

TAF YSDU 271113Z 2712/2806 VRB03KT 9999 -SHRA SCT015 BKN040 FM271800 VRB03KT 9999 -SHRA SCT010 BKN020 INTER 2712/2800 9999 SHRA BKN010 PROB30 TEMPO 2712/2714 VRB15G25KT 3000 TSRA BKN015 SCT040CB PROB30 2718/2723 0500 FG BKN001